createdAt,value
2023-01-29T00:02:06.423Z,4.10
2023-01-29T00:04:33.430Z,4.08
2023-01-29T00:07:00.457Z,3.88
2023-01-29T00:09:28.202Z,4.04
2023-01-29T00:11:55.061Z,4.02
2023-01-29T00:14:21.931Z,3.82
2023-01-29T00:16:48.849Z,4.01
2023-01-29T00:19:15.689Z,3.96
2023-01-29T00:21:42.572Z,3.96
2023-01-29T00:24:09.469Z,3.95
2023-01-29T00:26:37.497Z,3.91
2023-01-29T00:29:05.133Z,3.91
2023-01-29T00:31:32.204Z,3.92
2023-01-29T00:33:59.076Z,3.95
2023-01-29T00:36:26.158Z,3.96
2023-01-29T00:38:58.807Z,3.59
2023-01-29T00:41:51.120Z,3.76
2023-01-29T00:44:37.156Z,3.63
2023-01-29T00:47:04.333Z,4.04
2023-01-29T00:49:31.234Z,4.02
2023-01-29T00:52:16.929Z,4.00
2023-01-29T00:54:43.784Z,3.98
2023-01-29T00:57:10.716Z,3.94
2023-01-29T00:59:37.846Z,3.94
2023-01-29T01:02:23.690Z,3.90
2023-01-29T01:04:50.581Z,3.85
2023-01-29T01:07:17.462Z,3.86
2023-01-29T01:10:02.882Z,3.85
2023-01-29T01:12:29.643Z,3.82
2023-01-29T01:14:56.482Z,3.79
2023-01-29T01:17:23.423Z,3.76
2023-01-29T01:19:50.395Z,3.77
2023-01-29T01:22:17.534Z,3.75
2023-01-29T01:24:44.460Z,3.75
2023-01-29T01:27:11.295Z,3.76
2023-01-29T01:29:39.046Z,3.74
2023-01-29T01:32:06.279Z,3.73
2023-01-29T01:34:33.211Z,3.75
2023-01-29T01:37:00.977Z,3.73
2023-01-29T01:39:27.901Z,3.74
2023-01-29T01:41:55.102Z,3.67
2023-01-29T01:45:13.048Z,3.71
2023-01-29T01:48:00.631Z,3.68
2023-01-29T01:50:58.299Z,3.65
2023-01-29T01:53:39.177Z,3.64
2023-01-29T01:56:11.642Z,3.60
2023-01-29T01:58:47.086Z,3.51
2023-01-29T02:01:14.098Z,3.62
2023-01-29T02:04:05.462Z,3.61
2023-01-29T02:06:50.889Z,3.69
2023-01-29T02:09:36.357Z,3.71
2023-01-29T02:12:05.631Z,3.71
2023-01-29T02:14:33.343Z,3.58
2023-01-29T02:17:01.329Z,3.72
2023-01-29T02:19:55.873Z,3.72
2023-01-29T02:22:29.262Z,3.72
2023-01-29T02:24:56.449Z,3.74
2023-01-29T02:27:49.473Z,3.76
2023-01-29T02:30:30.806Z,3.76
2023-01-29T02:33:16.518Z,3.56
2023-01-29T02:35:50.893Z,3.77
2023-01-29T02:38:39.619Z,3.75
2023-01-29T02:41:35.065Z,3.48
2023-01-29T02:44:30.299Z,3.71
2023-01-29T02:47:21.288Z,3.74
2023-01-29T02:49:55.789Z,3.50
2023-01-29T02:52:28.214Z,3.71
2023-01-29T02:55:08.869Z,3.70
2023-01-29T02:57:37.573Z,3.70
2023-01-29T03:00:07.545Z,3.70
2023-01-29T03:02:46.361Z,3.71
2023-01-29T03:05:17.618Z,3.71
2023-01-29T03:07:53.913Z,3.71
2023-01-29T03:10:31.924Z,3.71
2023-01-29T03:13:21.082Z,3.47
2023-01-29T03:15:51.666Z,3.66
2023-01-29T03:18:37.905Z,3.64
2023-01-29T03:21:28.390Z,3.57
2023-01-29T03:24:14.453Z,3.39
2023-01-29T03:27:01.402Z,3.38
2023-01-29T03:29:51.153Z,3.58
2023-01-29T03:32:17.906Z,3.55
2023-01-29T03:34:48.242Z,3.52
2023-01-29T03:37:25.707Z,3.36
2023-01-29T03:39:53.609Z,3.58
2023-01-29T03:42:38.713Z,3.62
2023-01-29T03:45:08.541Z,3.59
2023-01-29T03:47:46.221Z,3.59
2023-01-29T03:50:51.537Z,3.55
2023-01-29T03:53:22.749Z,3.51
2023-01-29T03:55:55.304Z,3.48
2023-01-29T03:58:41.294Z,3.53
2023-01-29T04:01:15.652Z,3.49
2023-01-29T04:03:52.325Z,3.56
2023-01-29T04:06:21.300Z,3.55
2023-01-29T04:09:14.771Z,3.38
2023-01-29T04:11:50.156Z,3.51
2023-01-29T04:14:17.138Z,3.46
2023-01-29T04:16:50.499Z,3.47
2023-01-29T04:19:25.300Z,3.49
2023-01-29T04:22:06.016Z,3.49
2023-01-29T04:24:33.317Z,3.27
2023-01-29T04:27:17.657Z,3.52
2023-01-29T04:30:12.495Z,3.55
2023-01-29T04:32:50.176Z,3.55
2023-01-29T04:35:26.840Z,3.57
2023-01-29T04:38:01.770Z,3.57
2023-01-29T04:40:51.186Z,3.52
2023-01-29T04:43:29.492Z,3.59
2023-01-29T04:45:59.608Z,3.57
2023-01-29T04:48:40.509Z,3.61
2023-01-29T04:51:16.222Z,3.60
2023-01-29T04:53:55.348Z,3.60
2023-01-29T04:56:34.190Z,3.60
2023-01-29T04:59:06.854Z,3.58
2023-01-29T05:01:33.857Z,3.58
2023-01-29T05:04:02.751Z,3.46
2023-01-29T05:06:30.051Z,3.56
2023-01-29T05:08:56.869Z,3.61
2023-01-29T05:11:23.997Z,3.42
2023-01-29T05:13:50.870Z,3.60
2023-01-29T05:16:29.276Z,3.60
2023-01-29T05:18:56.160Z,3.58
2023-01-29T05:21:23.475Z,3.52
2023-01-29T05:24:16.108Z,3.57
2023-01-29T05:27:02.540Z,3.60
2023-01-29T05:29:29.444Z,3.47
2023-01-29T05:31:56.326Z,3.56
2023-01-29T05:34:23.868Z,3.58
2023-01-29T05:36:50.885Z,3.57
2023-01-29T05:39:17.742Z,3.38
2023-01-29T05:41:44.583Z,3.53
2023-01-29T05:44:11.467Z,3.56
2023-01-29T05:46:38.575Z,3.34
2023-01-29T05:49:05.550Z,3.54
2023-01-29T05:51:32.486Z,3.53
2023-01-29T05:53:59.575Z,3.48
2023-01-29T05:56:26.600Z,3.50
2023-01-29T05:58:53.449Z,3.46
2023-01-29T06:01:21.885Z,3.49
2023-01-29T06:03:48.805Z,3.52
2023-01-29T06:06:16.162Z,3.52
2023-01-29T06:08:43.107Z,3.51
2023-01-29T06:11:11.612Z,3.50
2023-01-29T06:13:38.761Z,3.47
2023-01-29T06:16:09.171Z,3.44
2023-01-29T06:18:36.517Z,3.43
2023-01-29T06:21:07.551Z,3.49
2023-01-29T06:23:34.473Z,3.26
2023-01-29T06:26:02.321Z,3.50
2023-01-29T06:28:29.200Z,3.49
2023-01-29T06:31:11.486Z,3.47
2023-01-29T06:33:46.837Z,3.44
2023-01-29T06:36:13.667Z,3.44
2023-01-29T06:38:40.571Z,3.43
2023-01-29T06:41:15.463Z,3.25
2023-01-29T06:43:44.022Z,3.38
2023-01-29T06:46:10.902Z,3.33
2023-01-29T06:48:37.890Z,3.32
2023-01-29T06:51:05.575Z,3.33
2023-01-29T06:53:33.315Z,3.33
2023-01-29T06:56:00.197Z,3.29
2023-01-29T06:58:27.084Z,3.35
2023-01-29T07:00:54.023Z,3.14
2023-01-29T07:03:21.202Z,3.35
2023-01-29T07:05:52.410Z,3.36
2023-01-29T07:08:22.628Z,3.10
2023-01-29T07:10:49.962Z,3.30
2023-01-29T07:13:16.872Z,3.34
2023-01-29T07:15:44.597Z,3.36
2023-01-29T07:18:14.460Z,3.35
2023-01-29T07:20:41.953Z,3.34
2023-01-29T07:23:15.207Z,2.96
2023-01-29T07:25:42.165Z,3.18
2023-01-29T07:28:09.059Z,3.34
2023-01-29T07:30:36.027Z,3.35
2023-01-29T07:33:04.754Z,3.35
2023-01-29T07:35:36.417Z,3.33
2023-01-29T07:38:03.227Z,3.35
2023-01-29T07:40:30.090Z,3.22
2023-01-29T07:43:03.828Z,3.35
2023-01-29T07:45:30.829Z,3.33
2023-01-29T07:47:57.725Z,3.33
2023-01-29T07:50:25.029Z,3.11
2023-01-29T07:52:51.934Z,3.34
2023-01-29T07:55:18.805Z,3.35
2023-01-29T07:57:45.734Z,3.15
2023-01-29T08:00:13.713Z,3.29
2023-01-29T08:02:41.589Z,3.35
2023-01-29T08:05:08.935Z,3.34
2023-01-29T08:07:35.831Z,3.34
2023-01-29T08:10:02.668Z,3.13
2023-01-29T08:12:29.544Z,3.33
2023-01-29T08:14:56.396Z,3.32
2023-01-29T08:17:23.258Z,3.34
2023-01-29T08:19:50.111Z,3.34
2023-01-29T08:22:16.964Z,3.33
2023-01-29T08:24:53.682Z,3.39
2023-01-29T08:27:26.923Z,3.39
2023-01-29T08:29:53.770Z,3.40
2023-01-29T08:32:20.604Z,3.41
2023-01-29T08:34:47.533Z,3.42
2023-01-29T08:37:14.501Z,3.44
2023-01-29T08:42:09.252Z,3.45
2023-01-29T08:44:36.079Z,3.47
2023-01-29T08:47:02.980Z,3.48
2023-01-29T08:49:30.014Z,3.50
2023-01-29T08:51:57.197Z,3.47
2023-01-29T08:54:24.256Z,3.50
2023-01-29T08:56:51.516Z,3.45
2023-01-29T08:59:19.226Z,3.51
2023-01-29T09:01:46.193Z,3.50
2023-01-29T09:04:13.217Z,3.50
2023-01-29T09:06:40.108Z,3.54
2023-01-29T09:09:07.017Z,3.54
2023-01-29T09:11:33.996Z,3.53
2023-01-29T09:14:00.892Z,3.55
2023-01-29T09:16:27.733Z,3.56
2023-01-29T09:18:55.063Z,3.57
2023-01-29T09:21:21.943Z,3.57
2023-01-29T09:23:48.798Z,3.58
2023-01-29T09:26:15.717Z,3.59
2023-01-29T09:28:42.611Z,3.56
2023-01-29T09:31:09.529Z,3.61
2023-01-29T09:33:36.665Z,3.61
2023-01-29T09:36:04.276Z,3.61
2023-01-29T09:38:31.250Z,3.38
2023-01-29T09:41:19.455Z,3.63
2023-01-29T09:44:01.439Z,3.46
2023-01-29T09:46:37.408Z,3.62
2023-01-29T09:49:17.466Z,3.61
2023-01-29T09:51:46.908Z,3.65
2023-01-29T09:54:19.088Z,3.68
2023-01-29T09:56:46.334Z,3.70
2023-01-29T09:59:13.879Z,3.68
2023-01-29T10:01:54.687Z,3.69
2023-01-29T10:04:57.269Z,3.72
2023-01-29T10:07:35.049Z,3.71
2023-01-29T10:10:17.002Z,3.73
2023-01-29T10:13:08.041Z,3.73
2023-01-29T10:15:43.392Z,3.73
2023-01-29T10:18:25.262Z,3.75
2023-01-29T10:20:55.056Z,3.75
2023-01-29T10:23:34.503Z,3.75
2023-01-29T10:26:01.938Z,3.76
2023-01-29T10:28:32.930Z,3.83
2023-01-29T10:31:05.127Z,3.82
2023-01-29T10:33:49.420Z,3.83
2023-01-29T10:36:32.614Z,3.50
2023-01-29T10:38:59.544Z,3.85
2023-01-29T10:41:34.393Z,3.69
2023-01-29T10:44:23.139Z,3.92
2023-01-29T10:46:56.359Z,3.93
2023-01-29T10:49:32.289Z,3.95
2023-01-29T10:52:24.285Z,3.96
2023-01-29T10:55:13.019Z,3.98
2023-01-29T10:58:04.604Z,3.99
2023-01-29T11:00:39.429Z,4.01
2023-01-29T11:03:27.575Z,4.02
2023-01-29T11:06:23.732Z,4.03
2023-01-29T11:09:29.282Z,4.05
2023-01-29T11:12:09.682Z,4.06
2023-01-29T11:14:43.220Z,4.07
2023-01-29T11:17:21.643Z,4.07
2023-01-29T11:19:49.971Z,4.14
2023-01-29T11:22:21.152Z,4.16
2023-01-29T11:25:15.031Z,4.19
2023-01-29T11:27:46.001Z,4.18
2023-01-29T11:30:24.707Z,4.24
2023-01-29T11:32:57.834Z,4.25
2023-01-29T11:35:25.265Z,4.10
2023-01-29T11:37:52.176Z,4.29
2023-01-29T11:40:19.141Z,4.35
2023-01-29T11:42:46.929Z,4.22
2023-01-29T11:45:22.965Z,4.42
2023-01-29T11:47:54.049Z,4.44
2023-01-29T11:50:25.586Z,4.46
2023-01-29T11:52:52.407Z,4.49
2023-01-29T11:55:23.900Z,4.51
2023-01-29T11:57:52.884Z,4.40
2023-01-29T12:00:23.751Z,4.59
2023-01-29T12:03:12.556Z,4.42
2023-01-29T12:05:40.116Z,4.69
2023-01-29T12:08:15.907Z,4.74
2023-01-29T12:10:42.927Z,4.76
2023-01-29T12:13:09.678Z,4.85
2023-01-29T12:15:37.178Z,4.91
2023-01-29T12:18:12.695Z,4.61
2023-01-29T12:20:41.883Z,4.84
2023-01-29T12:23:14.537Z,5.07
2023-01-29T12:26:25.436Z,5.12
2023-01-29T12:29:14.148Z,5.17
2023-01-29T12:32:08.489Z,4.87
2023-01-29T12:35:04.736Z,5.31
2023-01-29T12:37:46.161Z,5.34
2023-01-29T12:40:17.116Z,5.38
2023-01-29T12:42:49.935Z,5.47
2023-01-29T12:45:19.020Z,5.52
2023-01-29T12:47:49.376Z,5.57
2023-01-29T12:50:26.379Z,5.44
2023-01-29T12:53:14.598Z,5.67
2023-01-29T12:55:47.727Z,5.73
2023-01-29T12:58:16.406Z,5.77
2023-01-29T13:00:48.354Z,5.80
2023-01-29T13:03:33.269Z,5.69
2023-01-29T13:06:02.617Z,5.87
2023-01-29T13:08:39.075Z,5.88
2023-01-29T13:11:13.271Z,5.95
2023-01-29T13:13:53.975Z,5.79
2023-01-29T13:16:26.081Z,6.00
2023-01-29T13:19:06.298Z,6.02
2023-01-29T13:21:40.843Z,6.08
2023-01-29T13:24:17.722Z,5.86
2023-01-29T13:26:45.862Z,6.07
2023-01-29T13:29:29.280Z,6.16
2023-01-29T13:31:57.074Z,5.99
2023-01-29T13:34:31.652Z,6.02
2023-01-29T13:37:03.073Z,6.20
2023-01-29T13:39:31.910Z,6.12
2023-01-29T13:41:59.894Z,6.08
2023-01-29T13:44:33.856Z,6.30
2023-01-29T13:47:06.579Z,6.35
2023-01-29T13:49:34.905Z,6.23
2023-01-29T13:52:28.852Z,6.12
2023-01-29T13:55:01.506Z,5.87
2023-01-29T13:57:53.978Z,5.75
2023-01-29T14:00:22.524Z,6.04
2023-01-29T14:02:55.296Z,6.05
2023-01-29T14:05:31.490Z,6.09
2023-01-29T14:08:13.813Z,6.12
2023-01-29T14:10:41.823Z,5.85
2023-01-29T14:13:23.944Z,6.22
2023-01-29T14:15:56.910Z,6.23
2023-01-29T14:18:25.339Z,6.21
2023-01-29T14:21:18.033Z,6.24
2023-01-29T14:23:46.755Z,6.24
2023-01-29T14:26:31.369Z,6.09
2023-01-29T14:29:25.581Z,6.28
2023-01-29T14:32:06.773Z,6.25
2023-01-29T14:34:42.726Z,6.27
2023-01-29T14:37:15.504Z,6.33
2023-01-29T14:39:42.521Z,6.33
2023-01-29T14:42:22.136Z,6.35
2023-01-29T14:45:00.201Z,6.01
2023-01-29T14:47:27.261Z,6.36
2023-01-29T14:49:58.224Z,6.22
2023-01-29T14:52:29.940Z,6.38
2023-01-29T14:54:59.552Z,6.39
2023-01-29T14:57:26.449Z,6.42
2023-01-29T14:59:54.912Z,6.44
2023-01-29T15:02:33.128Z,6.44
2023-01-29T15:05:00.206Z,6.40
2023-01-29T15:07:34.388Z,6.23
2023-01-29T15:10:21.879Z,6.42
2023-01-29T15:12:54.471Z,6.43
2023-01-29T15:15:25.716Z,6.23
2023-01-29T15:18:00.025Z,6.42
2023-01-29T15:20:27.908Z,6.42
2023-01-29T15:22:54.750Z,6.41
2023-01-29T15:25:21.714Z,6.42
2023-01-29T15:27:48.610Z,6.40
2023-01-29T15:30:20.387Z,6.43
2023-01-29T15:32:47.285Z,6.42
2023-01-29T15:35:25.805Z,6.42
2023-01-29T15:38:18.373Z,6.40
2023-01-29T15:41:14.020Z,6.36
2023-01-29T15:43:43.293Z,6.32
2023-01-29T15:46:29.078Z,6.26
2023-01-29T15:48:57.293Z,6.24
2023-01-29T15:51:25.199Z,6.20
2023-01-29T15:53:53.229Z,6.16
2023-01-29T15:56:23.889Z,6.19
2023-01-29T15:58:51.176Z,6.14
2023-01-29T16:01:18.185Z,6.11
2023-01-29T16:03:45.077Z,6.06
2023-01-29T16:06:11.962Z,6.05
2023-01-29T16:08:38.990Z,6.04
2023-01-29T16:11:06.493Z,6.03
2023-01-29T16:13:35.332Z,5.98
2023-01-29T16:16:21.326Z,5.85
2023-01-29T16:18:59.550Z,5.96
2023-01-29T16:21:31.055Z,5.89
2023-01-29T16:24:11.954Z,5.90
2023-01-29T16:26:43.664Z,5.75
2023-01-29T16:29:12.509Z,5.85
2023-01-29T16:31:39.500Z,5.64
2023-01-29T16:34:14.265Z,5.81
2023-01-29T16:36:45.357Z,5.78
2023-01-29T16:39:19.136Z,5.72
2023-01-29T16:41:46.011Z,5.70
2023-01-29T16:44:15.885Z,5.68
2023-01-29T16:46:46.535Z,5.66
2023-01-29T16:49:25.595Z,5.63
2023-01-29T16:51:53.084Z,5.58
2023-01-29T16:54:23.527Z,5.53
2023-01-29T16:56:52.189Z,5.52
2023-01-29T16:59:26.843Z,5.50
2023-01-29T17:01:56.807Z,5.49
2023-01-29T17:04:23.674Z,5.45
2023-01-29T17:06:54.943Z,5.44
2023-01-29T17:09:32.649Z,5.26
2023-01-29T17:12:01.752Z,5.36
2023-01-29T17:14:28.592Z,5.32
2023-01-29T17:16:56.997Z,5.14
2023-01-29T17:19:25.401Z,5.22
2023-01-29T17:21:52.401Z,5.21
2023-01-29T17:24:19.254Z,5.20
2023-01-29T17:26:46.148Z,5.19
2023-01-29T17:29:14.007Z,5.16
2023-01-29T17:31:41.253Z,5.13
2023-01-29T17:34:15.227Z,4.95
2023-01-29T17:36:42.846Z,4.87
2023-01-29T17:39:27.880Z,5.06
2023-01-29T17:41:56.141Z,5.02
2023-01-29T17:44:23.181Z,4.99
2023-01-29T17:46:50.090Z,4.77
2023-01-29T17:49:25.194Z,4.87
2023-01-29T17:51:53.048Z,4.73
2023-01-29T17:54:20.194Z,4.89
2023-01-29T17:56:47.236Z,4.82
2023-01-29T17:59:18.657Z,4.84
2023-01-29T18:01:46.340Z,4.81
2023-01-29T18:04:13.504Z,4.81
2023-01-29T18:06:40.892Z,4.77
2023-01-29T18:09:07.748Z,4.37
2023-01-29T18:11:35.390Z,4.72
2023-01-29T18:14:03.084Z,4.70
2023-01-29T18:16:41.004Z,4.50
2023-01-29T18:19:22.241Z,4.63
2023-01-29T18:21:49.792Z,4.59
2023-01-29T18:24:16.795Z,4.56
2023-01-29T18:26:43.829Z,4.54
2023-01-29T18:29:10.836Z,4.53
2023-01-29T18:31:37.756Z,4.51
2023-01-29T18:34:04.697Z,4.52
2023-01-29T18:36:31.674Z,4.51
2023-01-29T18:38:58.585Z,4.50
2023-01-29T18:41:25.559Z,4.48
2023-01-29T18:43:52.936Z,4.47
2023-01-29T18:46:20.136Z,4.31
2023-01-29T18:48:47.020Z,4.46
2023-01-29T18:51:13.876Z,4.46
2023-01-29T18:53:40.826Z,4.46
2023-01-29T18:56:07.986Z,4.46
2023-01-29T18:58:38.143Z,4.42
2023-01-29T19:01:09.825Z,4.41
2023-01-29T19:03:37.350Z,4.44
2023-01-29T19:06:04.864Z,4.43
2023-01-29T19:08:31.864Z,4.43
2023-01-29T19:11:02.335Z,4.41
2023-01-29T19:13:30.296Z,4.40
2023-01-29T19:15:57.282Z,4.42
2023-01-29T19:18:26.057Z,4.41
2023-01-29T19:20:53.120Z,4.42
2023-01-29T19:23:20.507Z,4.31
2023-01-29T19:25:47.483Z,4.36
2023-01-29T19:28:14.662Z,4.34
2023-01-29T19:30:41.557Z,4.30
2023-01-29T19:33:09.669Z,4.31
2023-01-29T19:35:36.746Z,4.29
2023-01-29T19:38:04.137Z,4.29
2023-01-29T19:40:31.083Z,4.29
2023-01-29T19:42:58.456Z,4.28
2023-01-29T19:45:48.599Z,4.24
2023-01-29T19:48:21.330Z,4.23
2023-01-29T19:50:52.901Z,4.25
2023-01-29T19:53:19.728Z,4.23
2023-01-29T19:55:46.564Z,4.23
2023-01-29T19:58:13.971Z,4.21
2023-01-29T20:00:40.887Z,4.20
2023-01-29T20:03:07.747Z,4.19
2023-01-29T20:05:37.002Z,4.18
2023-01-29T20:08:04.017Z,4.10
2023-01-29T20:10:30.837Z,4.13
2023-01-29T20:12:58.118Z,4.14
2023-01-29T20:15:25.039Z,4.10
2023-01-29T20:17:51.876Z,4.12
2023-01-29T20:20:19.184Z,4.11
2023-01-29T20:22:46.309Z,4.09
2023-01-29T20:25:13.742Z,4.07
2023-01-29T20:27:41.005Z,4.06
2023-01-29T20:30:08.457Z,4.08
2023-01-29T20:32:35.428Z,4.05
2023-01-29T20:35:02.517Z,4.02
2023-01-29T20:37:29.461Z,4.01
2023-01-29T20:39:56.308Z,3.99
2023-01-29T20:42:23.178Z,3.98
2023-01-29T20:44:50.017Z,3.95
2023-01-29T20:47:16.849Z,3.94
2023-01-29T20:49:43.942Z,3.91
2023-01-29T20:52:11.360Z,3.89
2023-01-29T20:54:38.207Z,3.89
2023-01-29T20:57:05.129Z,3.85
2023-01-29T20:59:32.127Z,3.86
2023-01-29T21:01:59.031Z,3.87
2023-01-29T21:04:27.353Z,3.85
2023-01-29T21:06:54.218Z,3.58
2023-01-29T21:09:21.115Z,3.86
2023-01-29T21:11:48.053Z,3.80
2023-01-29T21:14:14.986Z,3.82
2023-01-29T21:16:41.853Z,3.82
2023-01-29T21:19:08.928Z,3.79
2023-01-29T21:21:35.829Z,3.72
2023-01-29T21:24:02.684Z,3.75
2023-01-29T21:26:29.611Z,3.75
2023-01-29T21:28:56.486Z,3.74
2023-01-29T21:31:23.438Z,3.60
2023-01-29T21:33:50.413Z,3.55
2023-01-29T21:36:21.061Z,3.69
2023-01-29T21:38:48.206Z,3.64
2023-01-29T21:41:15.084Z,3.63
2023-01-29T21:43:41.936Z,3.62
2023-01-29T21:46:12.222Z,3.63
2023-01-29T21:48:39.855Z,3.61
2023-01-29T21:51:06.726Z,3.45
2023-01-29T21:53:33.907Z,3.61
2023-01-29T21:56:01.722Z,3.63
2023-01-29T21:58:28.740Z,3.45
2023-01-29T22:00:55.701Z,3.60
2023-01-29T22:03:22.623Z,3.54
2023-01-29T22:05:50.197Z,3.56
2023-01-29T22:08:17.926Z,3.54
2023-01-29T22:10:45.188Z,3.53
2023-01-29T22:13:12.338Z,3.52
2023-01-29T22:15:39.244Z,3.34
2023-01-29T22:18:06.230Z,3.48
2023-01-29T22:20:33.104Z,3.52
2023-01-29T22:23:00.616Z,3.34
2023-01-29T22:25:27.774Z,3.53
2023-01-29T22:27:54.704Z,3.50
2023-01-29T22:30:23.280Z,3.49
2023-01-29T22:32:50.576Z,3.48
2023-01-29T22:35:17.657Z,3.31
2023-01-29T22:37:45.148Z,3.52
2023-01-29T22:40:13.008Z,3.44
2023-01-29T22:42:39.887Z,3.34
2023-01-29T22:45:08.050Z,3.48
2023-01-29T22:47:34.946Z,3.48
2023-01-29T22:50:01.819Z,3.51
2023-01-29T22:52:38.299Z,3.50
2023-01-29T22:55:09.716Z,3.51
2023-01-29T22:57:37.099Z,3.47
2023-01-29T23:00:09.610Z,3.48
2023-01-29T23:02:36.629Z,3.22
2023-01-29T23:05:04.328Z,3.46
2023-01-29T23:07:31.196Z,3.47
2023-01-29T23:09:58.037Z,3.44
2023-01-29T23:12:24.950Z,3.37
2023-01-29T23:14:51.808Z,3.39
2023-01-29T23:17:18.746Z,3.41
2023-01-29T23:19:45.623Z,3.40
2023-01-29T23:22:12.501Z,3.33
2023-01-29T23:24:39.374Z,3.38
2023-01-29T23:27:15.415Z,3.26
2023-01-29T23:29:48.543Z,3.12
2023-01-29T23:32:18.674Z,3.30
2023-01-29T23:34:45.597Z,3.31
2023-01-29T23:37:12.457Z,3.31
2023-01-29T23:39:39.377Z,3.29
2023-01-29T23:42:06.240Z,3.27
2023-01-29T23:44:33.081Z,3.18
2023-01-29T23:47:00.051Z,3.20
2023-01-29T23:49:27.070Z,3.20
2023-01-29T23:51:53.958Z,3.19
2023-01-29T23:54:20.864Z,3.16
2023-01-29T23:56:47.746Z,3.03
2023-01-29T23:59:15.112Z,3.16
